Macarthur, WV (25873)

6:35 PM EDT on July 23, 2016 (GMT -0400)
Midway, WV | | Change Station

Elev 2421 ft 37.72 °N, 81.25 °W | Updated 50 seconds ago

Partly Cloudy
Partly Cloudy
85.3 °F
Feels Like 83 °F
N
0.0
Wind Variable Wind from North
Gusts 0.0 mph

Today
High -- | Low -- °F
--% Chance of Precip.
Yesterday
High -- | Low -- °F
Precip. -- in
Pressure 29.96 in
Visibility 10.0 miles
Clouds Few 3800 ft
Heat Index 83 °F
Dew Point 51 °F
Humidity 31%
Rainfall in
Snow Depth Not available.
6:21 AM 8:40 PM
Waning Gibbous, 82% visible
METAR KBKW 232151Z AUTO 36005KT 10SM FEW038 30/19 A3008 RMK AO2 SLP146 T03000189 $
Pressure 29.96 in
Visibility 10.0 miles
Clouds Few 3800 ft
Heat Index 83 °F
Dew Point 51 °F
Humidity 31%
Rainfall in
Snow Depth Not available.
6:21 AM 8:40 PM
Waning Gibbous, 82% visible
METAR KBKW 232151Z AUTO 36005KT 10SM FEW038 30/19 A3008 RMK AO2 SLP146 T03000189 $

10-Day Weather Forecast

Almanac

Astronomy

Jul. 23, 2016 Rise Set
Actual Time
Civil Twilight
Nautical Twilight
Astronomical Twilight
Moon
Length of Visible Light
Length of Day
Tomorrow will be .
, % of the Moon is Illuminated

Today's Extremes

State Highs State Lows

Community

WunderPhotos

Upload Photos

1,926,946 photos uploaded!

WunderBlog® & News

Nearby

Air Quality

  Air Quality AQ Index Pollutant
Not available.

Snow Depth

Station Depth Elevation

Earthquake Activity

City Distance Mag. Time & Date
Minimum magnitude displayed is 2.5.

Coastal Water Temperatures

Place Temperature

Stations

Nearby Weather Stations

Station Location Temp. Windchill Dew Point Humidity Wind Precip. Elev Updated Type
                   

Watches & Warnings

There are currently no watches in effect.